sensor_id;sensor_type;location;lat;lon;timestamp;P1;durP1;ratioP1;P2;durP2;ratioP2
43184;SDS011;28803;52.308;19.096;2022-10-16T00:01:29;18.67;;;10.65;;
43184;SDS011;28803;52.308;19.096;2022-10-16T00:03:58;14.63;;;9.75;;
43184;SDS011;28803;52.308;19.096;2022-10-16T00:06:26;16.52;;;9.85;;
43184;SDS011;28803;52.308;19.096;2022-10-16T00:08:55;16.65;;;10.18;;
43184;SDS011;28803;52.308;19.096;2022-10-16T00:11:29;17.15;;;9.90;;
43184;SDS011;28803;52.308;19.096;2022-10-16T00:14:00;14.63;;;9.90;;
43184;SDS011;28803;52.308;19.096;2022-10-16T00:16:28;15.07;;;10.45;;
43184;SDS011;28803;52.308;19.096;2022-10-16T00:18:56;15.68;;;9.77;;
43184;SDS011;28803;52.308;19.096;2022-10-16T00:21:24;13.30;;;8.70;;
43184;SDS011;28803;52.308;19.096;2022-10-16T00:23:55;13.35;;;8.48;;
43184;SDS011;28803;52.308;19.096;2022-10-16T00:26:26;18.27;;;9.57;;
43184;SDS011;28803;52.308;19.096;2022-10-16T00:28:55;16.92;;;9.10;;
43184;SDS011;28803;52.308;19.096;2022-10-16T00:31:22;15.70;;;9.70;;
43184;SDS011;28803;52.308;19.096;2022-10-16T00:33:50;17.88;;;10.00;;
43184;SDS011;28803;52.308;19.096;2022-10-16T00:36:19;16.38;;;10.40;;
43184;SDS011;28803;52.308;19.096;2022-10-16T00:38:52;15.43;;;9.23;;
43184;SDS011;28803;52.308;19.096;2022-10-16T00:41:21;16.88;;;9.45;;
43184;SDS011;28803;52.308;19.096;2022-10-16T00:46:19;13.02;;;8.82;;
43184;SDS011;28803;52.308;19.096;2022-10-16T00:48:52;12.88;;;8.82;;
43184;SDS011;28803;52.308;19.096;2022-10-16T00:51:23;14.43;;;8.73;;
43184;SDS011;28803;52.308;19.096;2022-10-16T00:53:56;16.73;;;9.38;;
43184;SDS011;28803;52.308;19.096;2022-10-16T00:56:24;15.02;;;9.60;;
43184;SDS011;28803;52.308;19.096;2022-10-16T00:58:51;15.18;;;9.55;;
43184;SDS011;28803;52.308;19.096;2022-10-16T01:01:18;18.30;;;9.77;;
43184;SDS011;28803;52.308;19.096;2022-10-16T01:03:46;15.80;;;9.20;;
43184;SDS011;28803;52.308;19.096;2022-10-16T01:06:21;16.05;;;9.05;;
43184;SDS011;28803;52.308;19.096;2022-10-16T01:09:02;18.52;;;10.73;;
43184;SDS011;28803;52.308;19.096;2022-10-16T01:11:55;14.73;;;8.80;;
43184;SDS011;28803;52.308;19.096;2022-10-16T01:14:32;14.85;;;9.30;;
43184;SDS011;28803;52.308;19.096;2022-10-16T01:17:20;13.98;;;8.35;;
43184;SDS011;28803;52.308;19.096;2022-10-16T01:20:03;16.63;;;9.57;;
43184;SDS011;28803;52.308;19.096;2022-10-16T01:28:57;15.88;;;9.27;;
43184;SDS011;28803;52.308;19.096;2022-10-16T01:31:36;14.40;;;9.07;;
43184;SDS011;28803;52.308;19.096;2022-10-16T01:34:12;14.18;;;8.95;;
43184;SDS011;28803;52.308;19.096;2022-10-16T01:36:48;13.38;;;9.55;;
43184;SDS011;28803;52.308;19.096;2022-10-16T01:39:20;14.90;;;8.95;;
43184;SDS011;28803;52.308;19.096;2022-10-16T01:41:52;15.65;;;9.63;;
43184;SDS011;28803;52.308;19.096;2022-10-16T01:44:31;13.68;;;8.45;;
43184;SDS011;28803;52.308;19.096;2022-10-16T01:47:00;14.57;;;8.27;;
43184;SDS011;28803;52.308;19.096;2022-10-16T01:49:29;15.82;;;9.18;;
43184;SDS011;28803;52.308;19.096;2022-10-16T01:52:02;12.70;;;8.50;;
43184;SDS011;28803;52.308;19.096;2022-10-16T01:54:33;16.40;;;10.27;;
43184;SDS011;28803;52.308;19.096;2022-10-16T01:57:03;14.50;;;9.25;;
43184;SDS011;28803;52.308;19.096;2022-10-16T01:59:35;14.60;;;8.52;;
43184;SDS011;28803;52.308;19.096;2022-10-16T02:02:07;16.05;;;9.63;;
43184;SDS011;28803;52.308;19.096;2022-10-16T02:04:43;16.40;;;8.60;;
43184;SDS011;28803;52.308;19.096;2022-10-16T02:07:14;16.33;;;9.20;;
43184;SDS011;28803;52.308;19.096;2022-10-16T02:09:41;12.20;;;8.18;;
43184;SDS011;28803;52.308;19.096;2022-10-16T02:12:13;13.32;;;8.65;;
43184;SDS011;28803;52.308;19.096;2022-10-16T02:14:45;13.38;;;8.75;;
43184;SDS011;28803;52.308;19.096;2022-10-16T02:17:14;15.32;;;8.43;;
43184;SDS011;28803;52.308;19.096;2022-10-16T02:19:42;14.48;;;8.38;;
43184;SDS011;28803;52.308;19.096;2022-10-16T02:25:04;15.15;;;8.20;;
43184;SDS011;28803;52.308;19.096;2022-10-16T02:27:55;13.10;;;7.65;;
43184;SDS011;28803;52.308;19.096;2022-10-16T02:30:32;13.98;;;7.47;;
43184;SDS011;28803;52.308;19.096;2022-10-16T02:33:03;12.63;;;8.00;;
43184;SDS011;28803;52.308;19.096;2022-10-16T02:35:33;14.45;;;9.10;;
43184;SDS011;28803;52.308;19.096;2022-10-16T02:38:02;13.10;;;7.75;;
43184;SDS011;28803;52.308;19.096;2022-10-16T02:40:30;15.00;;;8.13;;
43184;SDS011;28803;52.308;19.096;2022-10-16T02:42:57;12.45;;;8.25;;
43184;SDS011;28803;52.308;19.096;2022-10-16T02:45:24;14.88;;;7.68;;
43184;SDS011;28803;52.308;19.096;2022-10-16T02:47:52;11.80;;;7.65;;
43184;SDS011;28803;52.308;19.096;2022-10-16T02:50:18;12.38;;;7.70;;
43184;SDS011;28803;52.308;19.096;2022-10-16T02:52:46;14.75;;;7.85;;
43184;SDS011;28803;52.308;19.096;2022-10-16T02:55:13;11.70;;;7.93;;
43184;SDS011;28803;52.308;19.096;2022-10-16T02:57:40;11.38;;;7.20;;
43184;SDS011;28803;52.308;19.096;2022-10-16T03:00:08;11.70;;;6.70;;
43184;SDS011;28803;52.308;19.096;2022-10-16T03:02:36;12.05;;;7.47;;
43184;SDS011;28803;52.308;19.096;2022-10-16T03:05:03;14.25;;;7.22;;
43184;SDS011;28803;52.308;19.096;2022-10-16T03:07:31;12.00;;;7.68;;
43184;SDS011;28803;52.308;19.096;2022-10-16T03:09:58;13.18;;;7.30;;
43184;SDS011;28803;52.308;19.096;2022-10-16T03:12:27;12.15;;;7.13;;
43184;SDS011;28803;52.308;19.096;2022-10-16T03:14:55;11.80;;;6.45;;
43184;SDS011;28803;52.308;19.096;2022-10-16T03:17:24;12.32;;;6.25;;
43184;SDS011;28803;52.308;19.096;2022-10-16T03:19:52;10.23;;;6.82;;
43184;SDS011;28803;52.308;19.096;2022-10-16T03:22:19;11.57;;;6.15;;
43184;SDS011;28803;52.308;19.096;2022-10-16T03:24:46;9.30;;;6.05;;
43184;SDS011;28803;52.308;19.096;2022-10-16T03:27:13;12.77;;;6.30;;
43184;SDS011;28803;52.308;19.096;2022-10-16T03:29:40;10.63;;;6.13;;
43184;SDS011;28803;52.308;19.096;2022-10-16T03:32:07;9.70;;;6.00;;
43184;SDS011;28803;52.308;19.096;2022-10-16T03:34:34;10.10;;;6.47;;
43184;SDS011;28803;52.308;19.096;2022-10-16T03:37:01;9.57;;;5.82;;
43184;SDS011;28803;52.308;19.096;2022-10-16T03:39:28;10.50;;;5.68;;
43184;SDS011;28803;52.308;19.096;2022-10-16T03:41:55;8.82;;;5.38;;
43184;SDS011;28803;52.308;19.096;2022-10-16T03:44:22;8.98;;;6.07;;
43184;SDS011;28803;52.308;19.096;2022-10-16T03:46:49;9.43;;;5.68;;
43184;SDS011;28803;52.308;19.096;2022-10-16T03:49:16;9.15;;;5.53;;
43184;SDS011;28803;52.308;19.096;2022-10-16T03:51:43;8.23;;;5.40;;
43184;SDS011;28803;52.308;19.096;2022-10-16T03:54:10;9.57;;;5.57;;
43184;SDS011;28803;52.308;19.096;2022-10-16T03:56:38;9.45;;;5.20;;
43184;SDS011;28803;52.308;19.096;2022-10-16T03:59:04;8.75;;;5.72;;
43184;SDS011;28803;52.308;19.096;2022-10-16T04:01:32;9.32;;;5.80;;
43184;SDS011;28803;52.308;19.096;2022-10-16T04:03:59;9.15;;;5.28;;
43184;SDS011;28803;52.308;19.096;2022-10-16T04:06:26;10.02;;;5.57;;
43184;SDS011;28803;52.308;19.096;2022-10-16T04:08:53;9.50;;;5.35;;
43184;SDS011;28803;52.308;19.096;2022-10-16T04:11:20;9.82;;;5.90;;
43184;SDS011;28803;52.308;19.096;2022-10-16T04:13:47;8.70;;;5.32;;
43184;SDS011;28803;52.308;19.096;2022-10-16T04:16:15;8.35;;;5.25;;
43184;SDS011;28803;52.308;19.096;2022-10-16T04:18:43;8.80;;;5.30;;
43184;SDS011;28803;52.308;19.096;2022-10-16T04:21:10;8.18;;;5.28;;
43184;SDS011;28803;52.308;19.096;2022-10-16T04:23:37;11.82;;;6.32;;
43184;SDS011;28803;52.308;19.096;2022-10-16T04:26:04;9.32;;;4.95;;
43184;SDS011;28803;52.308;19.096;2022-10-16T04:28:31;7.47;;;5.35;;
43184;SDS011;28803;52.308;19.096;2022-10-16T04:30:58;8.18;;;5.20;;
43184;SDS011;28803;52.308;19.096;2022-10-16T04:33:25;8.43;;;5.70;;
43184;SDS011;28803;52.308;19.096;2022-10-16T04:35:56;10.20;;;5.60;;
43184;SDS011;28803;52.308;19.096;2022-10-16T04:38:27;9.77;;;6.13;;
43184;SDS011;28803;52.308;19.096;2022-10-16T04:40:55;10.25;;;5.78;;
43184;SDS011;28803;52.308;19.096;2022-10-16T04:43:22;9.05;;;5.28;;
43184;SDS011;28803;52.308;19.096;2022-10-16T04:45:49;9.55;;;5.50;;
43184;SDS011;28803;52.308;19.096;2022-10-16T04:48:20;8.25;;;5.70;;
43184;SDS011;28803;52.308;19.096;2022-10-16T04:50:48;8.95;;;5.75;;
43184;SDS011;28803;52.308;19.096;2022-10-16T04:53:20;9.53;;;5.87;;
43184;SDS011;28803;52.308;19.096;2022-10-16T04:55:48;11.40;;;6.35;;
43184;SDS011;28803;52.308;19.096;2022-10-16T04:58:15;9.32;;;5.78;;
43184;SDS011;28803;52.308;19.096;2022-10-16T05:00:42;9.45;;;6.13;;
43184;SDS011;28803;52.308;19.096;2022-10-16T05:03:10;10.77;;;6.40;;
43184;SDS011;28803;52.308;19.096;2022-10-16T05:05:41;10.32;;;6.32;;
43184;SDS011;28803;52.308;19.096;2022-10-16T05:08:10;10.30;;;6.13;;
43184;SDS011;28803;52.308;19.096;2022-10-16T05:10:38;11.85;;;7.13;;
43184;SDS011;28803;52.308;19.096;2022-10-16T05:13:05;11.43;;;6.90;;
43184;SDS011;28803;52.308;19.096;2022-10-16T05:15:32;10.75;;;6.07;;
43184;SDS011;28803;52.308;19.096;2022-10-16T05:17:59;10.00;;;5.97;;
43184;SDS011;28803;52.308;19.096;2022-10-16T05:20:27;10.18;;;6.45;;
43184;SDS011;28803;52.308;19.096;2022-10-16T05:22:54;11.80;;;6.95;;
43184;SDS011;28803;52.308;19.096;2022-10-16T05:25:21;10.70;;;6.65;;
43184;SDS011;28803;52.308;19.096;2022-10-16T05:27:48;11.40;;;6.85;;
43184;SDS011;28803;52.308;19.096;2022-10-16T05:30:16;11.75;;;6.55;;
43184;SDS011;28803;52.308;19.096;2022-10-16T05:32:50;11.05;;;7.07;;
43184;SDS011;28803;52.308;19.096;2022-10-16T05:35:18;12.18;;;7.40;;
43184;SDS011;28803;52.308;19.096;2022-10-16T05:37:46;12.88;;;6.75;;
43184;SDS011;28803;52.308;19.096;2022-10-16T05:40:14;13.48;;;7.07;;
43184;SDS011;28803;52.308;19.096;2022-10-16T05:42:41;13.30;;;7.90;;
43184;SDS011;28803;52.308;19.096;2022-10-16T05:45:09;13.52;;;7.90;;
43184;SDS011;28803;52.308;19.096;2022-10-16T05:47:37;12.32;;;7.18;;
43184;SDS011;28803;52.308;19.096;2022-10-16T05:50:05;12.70;;;7.57;;
43184;SDS011;28803;52.308;19.096;2022-10-16T05:52:32;11.85;;;7.55;;
43184;SDS011;28803;52.308;19.096;2022-10-16T05:54:59;13.25;;;7.88;;
43184;SDS011;28803;52.308;19.096;2022-10-16T05:57:26;12.00;;;6.97;;
43184;SDS011;28803;52.308;19.096;2022-10-16T05:59:54;11.23;;;7.10;;
43184;SDS011;28803;52.308;19.096;2022-10-16T06:02:21;14.45;;;7.88;;
43184;SDS011;28803;52.308;19.096;2022-10-16T06:04:48;13.95;;;7.45;;
43184;SDS011;28803;52.308;19.096;2022-10-16T06:07:15;11.52;;;6.68;;
43184;SDS011;28803;52.308;19.096;2022-10-16T06:09:42;10.38;;;6.45;;
43184;SDS011;28803;52.308;19.096;2022-10-16T06:12:09;13.55;;;7.82;;
43184;SDS011;28803;52.308;19.096;2022-10-16T06:14:36;12.23;;;7.03;;
43184;SDS011;28803;52.308;19.096;2022-10-16T06:17:03;11.77;;;6.97;;
43184;SDS011;28803;52.308;19.096;2022-10-16T06:19:31;13.05;;;7.10;;
43184;SDS011;28803;52.308;19.096;2022-10-16T06:21:58;10.63;;;6.18;;
43184;SDS011;28803;52.308;19.096;2022-10-16T06:24:25;9.73;;;6.30;;
43184;SDS011;28803;52.308;19.096;2022-10-16T06:26:52;10.43;;;6.63;;
43184;SDS011;28803;52.308;19.096;2022-10-16T06:29:19;12.73;;;7.57;;
43184;SDS011;28803;52.308;19.096;2022-10-16T06:31:46;13.98;;;7.38;;
43184;SDS011;28803;52.308;19.096;2022-10-16T06:34:13;11.77;;;6.85;;
43184;SDS011;28803;52.308;19.096;2022-10-16T06:36:40;12.55;;;7.50;;
43184;SDS011;28803;52.308;19.096;2022-10-16T06:39:08;13.63;;;7.97;;
43184;SDS011;28803;52.308;19.096;2022-10-16T06:41:35;14.82;;;8.65;;
43184;SDS011;28803;52.308;19.096;2022-10-16T06:44:04;12.82;;;7.82;;
43184;SDS011;28803;52.308;19.096;2022-10-16T06:46:32;12.38;;;7.63;;
43184;SDS011;28803;52.308;19.096;2022-10-16T06:49:00;13.93;;;7.72;;
43184;SDS011;28803;52.308;19.096;2022-10-16T06:51:27;12.88;;;7.57;;
43184;SDS011;28803;52.308;19.096;2022-10-16T06:53:54;14.68;;;8.30;;
43184;SDS011;28803;52.308;19.096;2022-10-16T06:56:30;12.90;;;8.15;;
43184;SDS011;28803;52.308;19.096;2022-10-16T06:58:58;16.35;;;8.25;;
43184;SDS011;28803;52.308;19.096;2022-10-16T07:01:26;13.80;;;8.73;;
43184;SDS011;28803;52.308;19.096;2022-10-16T07:03:53;15.07;;;8.20;;
43184;SDS011;28803;52.308;19.096;2022-10-16T07:06:21;17.75;;;9.52;;
43184;SDS011;28803;52.308;19.096;2022-10-16T07:08:49;13.68;;;8.35;;
43184;SDS011;28803;52.308;19.096;2022-10-16T07:11:18;16.20;;;9.70;;
43184;SDS011;28803;52.308;19.096;2022-10-16T07:13:48;13.18;;;7.95;;
43184;SDS011;28803;52.308;19.096;2022-10-16T07:16:25;17.83;;;9.20;;
43184;SDS011;28803;52.308;19.096;2022-10-16T07:18:54;15.57;;;9.90;;
43184;SDS011;28803;52.308;19.096;2022-10-16T07:21:30;16.30;;;9.73;;
43184;SDS011;28803;52.308;19.096;2022-10-16T07:24:02;19.63;;;9.73;;
43184;SDS011;28803;52.308;19.096;2022-10-16T07:26:32;19.27;;;10.35;;
43184;SDS011;28803;52.308;19.096;2022-10-16T07:29:01;17.73;;;9.60;;
43184;SDS011;28803;52.308;19.096;2022-10-16T07:31:30;21.35;;;10.98;;
43184;SDS011;28803;52.308;19.096;2022-10-16T07:33:58;17.23;;;10.20;;
43184;SDS011;28803;52.308;19.096;2022-10-16T07:36:26;19.77;;;10.10;;
43184;SDS011;28803;52.308;19.096;2022-10-16T07:38:53;16.60;;;9.88;;
43184;SDS011;28803;52.308;19.096;2022-10-16T07:41:25;19.20;;;9.75;;
43184;SDS011;28803;52.308;19.096;2022-10-16T07:43:54;17.13;;;9.88;;
43184;SDS011;28803;52.308;19.096;2022-10-16T07:46:23;19.95;;;10.82;;
43184;SDS011;28803;52.308;19.096;2022-10-16T07:48:51;19.08;;;11.32;;
43184;SDS011;28803;52.308;19.096;2022-10-16T07:51:19;18.90;;;10.00;;
43184;SDS011;28803;52.308;19.096;2022-10-16T07:53:47;21.88;;;10.93;;
43184;SDS011;28803;52.308;19.096;2022-10-16T07:56:15;21.15;;;11.90;;
43184;SDS011;28803;52.308;19.096;2022-10-16T07:58:43;19.67;;;10.13;;
43184;SDS011;28803;52.308;19.096;2022-10-16T08:01:12;17.00;;;10.85;;
43184;SDS011;28803;52.308;19.096;2022-10-16T08:03:41;17.13;;;9.85;;
43184;SDS011;28803;52.308;19.096;2022-10-16T08:06:09;21.15;;;10.40;;
43184;SDS011;28803;52.308;19.096;2022-10-16T08:08:36;19.05;;;10.38;;
43184;SDS011;28803;52.308;19.096;2022-10-16T08:11:04;19.63;;;11.43;;
43184;SDS011;28803;52.308;19.096;2022-10-16T08:13:32;15.65;;;9.77;;
43184;SDS011;28803;52.308;19.096;2022-10-16T08:15:59;17.85;;;9.30;;
43184;SDS011;28803;52.308;19.096;2022-10-16T08:18:26;18.45;;;10.40;;
43184;SDS011;28803;52.308;19.096;2022-10-16T08:20:57;16.88;;;10.10;;
43184;SDS011;28803;52.308;19.096;2022-10-16T08:23:25;17.05;;;9.40;;
43184;SDS011;28803;52.308;19.096;2022-10-16T08:25:56;16.23;;;8.93;;
43184;SDS011;28803;52.308;19.096;2022-10-16T08:28:29;13.65;;;8.55;;
43184;SDS011;28803;52.308;19.096;2022-10-16T08:31:04;10.35;;;7.03;;
43184;SDS011;28803;52.308;19.096;2022-10-16T08:33:35;12.68;;;7.72;;
43184;SDS011;28803;52.308;19.096;2022-10-16T08:36:04;10.52;;;6.72;;
43184;SDS011;28803;52.308;19.096;2022-10-16T08:38:32;12.15;;;8.00;;
43184;SDS011;28803;52.308;19.096;2022-10-16T08:49:58;10.48;;;6.35;;
43184;SDS011;28803;52.308;19.096;2022-10-16T08:54:57;9.15;;;5.93;;
43184;SDS011;28803;52.308;19.096;2022-10-16T08:57:25;11.35;;;6.80;;
43184;SDS011;28803;52.308;19.096;2022-10-16T08:59:57;11.05;;;6.65;;
43184;SDS011;28803;52.308;19.096;2022-10-16T09:02:37;10.48;;;6.40;;
43184;SDS011;28803;52.308;19.096;2022-10-16T09:05:17;8.75;;;6.25;;
43184;SDS011;28803;52.308;19.096;2022-10-16T09:08:14;9.45;;;5.38;;
43184;SDS011;28803;52.308;19.096;2022-10-16T09:11:03;10.93;;;6.60;;
43184;SDS011;28803;52.308;19.096;2022-10-16T09:14:06;8.25;;;5.55;;
43184;SDS011;28803;52.308;19.096;2022-10-16T09:16:52;8.45;;;5.10;;
43184;SDS011;28803;52.308;19.096;2022-10-16T09:19:29;9.90;;;5.90;;
43184;SDS011;28803;52.308;19.096;2022-10-16T09:22:09;8.23;;;5.32;;
43184;SDS011;28803;52.308;19.096;2022-10-16T09:24:41;9.95;;;5.53;;
43184;SDS011;28803;52.308;19.096;2022-10-16T09:27:11;9.65;;;5.45;;
43184;SDS011;28803;52.308;19.096;2022-10-16T09:29:39;10.05;;;5.28;;
43184;SDS011;28803;52.308;19.096;2022-10-16T09:32:10;7.60;;;4.85;;
43184;SDS011;28803;52.308;19.096;2022-10-16T09:34:42;9.02;;;5.60;;
43184;SDS011;28803;52.308;19.096;2022-10-16T09:37:14;7.22;;;5.22;;
43184;SDS011;28803;52.308;19.096;2022-10-16T09:39:49;6.82;;;4.93;;
43184;SDS011;28803;52.308;19.096;2022-10-16T09:42:21;7.28;;;5.10;;
43184;SDS011;28803;52.308;19.096;2022-10-16T09:45:19;8.05;;;5.32;;
43184;SDS011;28803;52.308;19.096;2022-10-16T09:47:49;11.68;;;5.72;;
43184;SDS011;28803;52.308;19.096;2022-10-16T09:50:23;10.45;;;5.93;;
43184;SDS011;28803;52.308;19.096;2022-10-16T09:53:04;8.13;;;5.40;;
43184;SDS011;28803;52.308;19.096;2022-10-16T09:55:31;9.35;;;6.03;;
43184;SDS011;28803;52.308;19.096;2022-10-16T09:57:58;8.52;;;5.40;;
43184;SDS011;28803;52.308;19.096;2022-10-16T10:00:25;7.53;;;5.25;;
43184;SDS011;28803;52.308;19.096;2022-10-16T10:02:53;8.80;;;5.45;;
43184;SDS011;28803;52.308;19.096;2022-10-16T10:05:22;8.68;;;5.60;;
43184;SDS011;28803;52.308;19.096;2022-10-16T10:08:01;11.18;;;6.28;;
43184;SDS011;28803;52.308;19.096;2022-10-16T10:10:33;8.98;;;5.63;;
43184;SDS011;28803;52.308;19.096;2022-10-16T10:13:16;8.43;;;5.47;;
43184;SDS011;28803;52.308;19.096;2022-10-16T10:15:45;9.55;;;5.65;;
43184;SDS011;28803;52.308;19.096;2022-10-16T10:18:16;10.10;;;5.90;;
43184;SDS011;28803;52.308;19.096;2022-10-16T10:20:45;8.80;;;5.75;;
43184;SDS011;28803;52.308;19.096;2022-10-16T10:23:24;8.02;;;5.03;;
43184;SDS011;28803;52.308;19.096;2022-10-16T10:26:04;8.85;;;5.50;;
43184;SDS011;28803;52.308;19.096;2022-10-16T10:39:08;8.30;;;4.22;;
43184;SDS011;28803;52.308;19.096;2022-10-16T10:42:17;7.43;;;4.55;;
43184;SDS011;28803;52.308;19.096;2022-10-16T10:50:57;8.00;;;4.93;;
43184;SDS011;28803;52.308;19.096;2022-10-16T10:53:36;9.35;;;5.53;;
43184;SDS011;28803;52.308;19.096;2022-10-16T11:02:19;7.90;;;5.15;;
43184;SDS011;28803;52.308;19.096;2022-10-16T11:07:58;8.07;;;4.50;;
43184;SDS011;28803;52.308;19.096;2022-10-16T11:10:38;8.38;;;5.07;;
43184;SDS011;28803;52.308;19.096;2022-10-16T11:13:19;8.57;;;4.88;;
43184;SDS011;28803;52.308;19.096;2022-10-16T11:16:48;6.88;;;4.68;;
43184;SDS011;28803;52.308;19.096;2022-10-16T11:21:51;10.43;;;5.60;;
43184;SDS011;28803;52.308;19.096;2022-10-16T11:24:37;7.43;;;4.97;;
43184;SDS011;28803;52.308;19.096;2022-10-16T11:27:08;7.88;;;4.90;;
43184;SDS011;28803;52.308;19.096;2022-10-16T11:29:49;8.52;;;4.63;;
43184;SDS011;28803;52.308;19.096;2022-10-16T11:32:32;7.40;;;4.60;;
43184;SDS011;28803;52.308;19.096;2022-10-16T11:35:18;7.20;;;4.37;;
43184;SDS011;28803;52.308;19.096;2022-10-16T11:40:28;7.05;;;4.40;;
43184;SDS011;28803;52.308;19.096;2022-10-16T11:43:07;8.40;;;5.03;;
43184;SDS011;28803;52.308;19.096;2022-10-16T11:45:46;6.47;;;4.45;;
43184;SDS011;28803;52.308;19.096;2022-10-16T11:48:41;6.05;;;3.92;;
43184;SDS011;28803;52.308;19.096;2022-10-16T11:51:24;6.32;;;4.20;;
43184;SDS011;28803;52.308;19.096;2022-10-16T11:57:07;6.32;;;4.38;;
43184;SDS011;28803;52.308;19.096;2022-10-16T12:02:40;5.93;;;4.22;;
43184;SDS011;28803;52.308;19.096;2022-10-16T12:08:02;6.57;;;4.28;;
43184;SDS011;28803;52.308;19.096;2022-10-16T12:10:40;8.88;;;4.55;;
43184;SDS011;28803;52.308;19.096;2022-10-16T12:16:19;6.60;;;4.20;;
43184;SDS011;28803;52.308;19.096;2022-10-16T12:18:48;7.93;;;5.15;;
43184;SDS011;28803;52.308;19.096;2022-10-16T12:21:31;5.70;;;4.00;;
43184;SDS011;28803;52.308;19.096;2022-10-16T12:24:02;7.22;;;4.60;;
43184;SDS011;28803;52.308;19.096;2022-10-16T12:26:33;6.95;;;3.97;;
43184;SDS011;28803;52.308;19.096;2022-10-16T12:31:45;9.32;;;4.93;;
43184;SDS011;28803;52.308;19.096;2022-10-16T12:34:26;6.03;;;4.27;;
43184;SDS011;28803;52.308;19.096;2022-10-16T12:37:10;6.43;;;3.88;;
43184;SDS011;28803;52.308;19.096;2022-10-16T12:39:49;7.43;;;3.83;;
43184;SDS011;28803;52.308;19.096;2022-10-16T12:44:55;7.50;;;4.65;;
43184;SDS011;28803;52.308;19.096;2022-10-16T12:47:23;8.40;;;4.28;;
43184;SDS011;28803;52.308;19.096;2022-10-16T12:49:57;6.43;;;4.05;;
43184;SDS011;28803;52.308;19.096;2022-10-16T12:52:27;6.40;;;4.15;;
43184;SDS011;28803;52.308;19.096;2022-10-16T12:54:57;8.83;;;3.97;;
43184;SDS011;28803;52.308;19.096;2022-10-16T12:57:32;6.05;;;4.00;;
43184;SDS011;28803;52.308;19.096;2022-10-16T13:00:13;7.22;;;3.85;;
43184;SDS011;28803;52.308;19.096;2022-10-16T13:22:57;5.78;;;3.45;;
43184;SDS011;28803;52.308;19.096;2022-10-16T13:25:42;6.72;;;3.78;;
43184;SDS011;28803;52.308;19.096;2022-10-16T13:28:26;5.20;;;3.25;;
43184;SDS011;28803;52.308;19.096;2022-10-16T13:30:57;6.38;;;3.92;;
43184;SDS011;28803;52.308;19.096;2022-10-16T13:36:00;6.18;;;3.95;;
43184;SDS011;28803;52.308;19.096;2022-10-16T13:38:29;5.78;;;3.80;;
43184;SDS011;28803;52.308;19.096;2022-10-16T13:41:02;6.00;;;3.90;;
43184;SDS011;28803;52.308;19.096;2022-10-16T13:43:38;6.75;;;4.20;;
43184;SDS011;28803;52.308;19.096;2022-10-16T13:48:41;7.65;;;4.75;;
43184;SDS011;28803;52.308;19.096;2022-10-16T13:51:13;7.32;;;4.15;;
43184;SDS011;28803;52.308;19.096;2022-10-16T13:53:45;7.22;;;4.25;;
43184;SDS011;28803;52.308;19.096;2022-10-16T13:56:13;5.80;;;4.10;;
43184;SDS011;28803;52.308;19.096;2022-10-16T14:01:20;6.78;;;4.03;;
43184;SDS011;28803;52.308;19.096;2022-10-16T14:04:00;5.70;;;4.13;;
43184;SDS011;28803;52.308;19.096;2022-10-16T14:06:33;7.68;;;4.68;;
43184;SDS011;28803;52.308;19.096;2022-10-16T14:09:06;4.43;;;3.13;;
43184;SDS011;28803;52.308;19.096;2022-10-16T14:11:57;5.15;;;3.53;;
43184;SDS011;28803;52.308;19.096;2022-10-16T14:14:30;6.28;;;3.92;;
43184;SDS011;28803;52.308;19.096;2022-10-16T14:17:06;7.18;;;4.50;;
43184;SDS011;28803;52.308;19.096;2022-10-16T14:19:44;6.38;;;3.80;;
43184;SDS011;28803;52.308;19.096;2022-10-16T14:24:57;5.80;;;3.85;;
43184;SDS011;28803;52.308;19.096;2022-10-16T14:27:31;6.82;;;4.55;;
43184;SDS011;28803;52.308;19.096;2022-10-16T14:32:41;6.47;;;4.28;;
43184;SDS011;28803;52.308;19.096;2022-10-16T14:35:23;6.93;;;4.22;;
43184;SDS011;28803;52.308;19.096;2022-10-16T14:37:53;7.03;;;4.00;;
43184;SDS011;28803;52.308;19.096;2022-10-16T14:40:23;531.78;;;289.90;;
43184;SDS011;28803;52.308;19.096;2022-10-16T14:42:53;499.27;;;358.30;;
43184;SDS011;28803;52.308;19.096;2022-10-16T14:45:21;764.58;;;537.42;;
43184;SDS011;28803;52.308;19.096;2022-10-16T14:47:53;650.95;;;523.15;;
43184;SDS011;28803;52.308;19.096;2022-10-16T14:50:26;237.32;;;211.38;;
43184;SDS011;28803;52.308;19.096;2022-10-16T14:52:54;39.97;;;35.72;;
43184;SDS011;28803;52.308;19.096;2022-10-16T14:55:21;24.17;;;21.65;;
43184;SDS011;28803;52.308;19.096;2022-10-16T14:57:49;35.63;;;28.48;;
43184;SDS011;28803;52.308;19.096;2022-10-16T15:00:18;26.60;;;21.02;;
43184;SDS011;28803;52.308;19.096;2022-10-16T15:02:48;19.15;;;14.85;;
43184;SDS011;28803;52.308;19.096;2022-10-16T15:05:18;19.58;;;16.88;;
43184;SDS011;28803;52.308;19.096;2022-10-16T15:07:48;9.32;;;8.18;;
43184;SDS011;28803;52.308;19.096;2022-10-16T15:10:17;29.38;;;22.88;;
43184;SDS011;28803;52.308;19.096;2022-10-16T15:12:45;48.67;;;37.25;;
43184;SDS011;28803;52.308;19.096;2022-10-16T15:15:26;106.22;;;76.30;;
43184;SDS011;28803;52.308;19.096;2022-10-16T15:18:06;51.28;;;37.08;;
43184;SDS011;28803;52.308;19.096;2022-10-16T15:20:34;118.95;;;88.47;;
43184;SDS011;28803;52.308;19.096;2022-10-16T15:23:04;120.35;;;79.88;;
43184;SDS011;28803;52.308;19.096;2022-10-16T15:25:57;42.78;;;33.75;;
43184;SDS011;28803;52.308;19.096;2022-10-16T15:28:24;26.85;;;22.98;;
43184;SDS011;28803;52.308;19.096;2022-10-16T15:30:53;14.05;;;10.95;;
43184;SDS011;28803;52.308;19.096;2022-10-16T15:33:22;13.82;;;9.52;;
43184;SDS011;28803;52.308;19.096;2022-10-16T15:35:53;15.13;;;10.52;;
43184;SDS011;28803;52.308;19.096;2022-10-16T15:38:21;11.75;;;8.50;;
43184;SDS011;28803;52.308;19.096;2022-10-16T15:40:49;10.35;;;7.13;;
43184;SDS011;28803;52.308;19.096;2022-10-16T15:43:17;9.48;;;6.40;;
43184;SDS011;28803;52.308;19.096;2022-10-16T15:46:04;14.40;;;6.82;;
43184;SDS011;28803;52.308;19.096;2022-10-16T15:48:32;408.60;;;221.75;;
43184;SDS011;28803;52.308;19.096;2022-10-16T15:51:00;169.63;;;127.47;;
43184;SDS011;28803;52.308;19.096;2022-10-16T15:53:31;83.50;;;74.50;;
43184;SDS011;28803;52.308;19.096;2022-10-16T15:56:03;74.45;;;66.47;;
43184;SDS011;28803;52.308;19.096;2022-10-16T15:58:31;105.65;;;94.28;;
43184;SDS011;28803;52.308;19.096;2022-10-16T16:00:59;59.63;;;53.35;;
43184;SDS011;28803;52.308;19.096;2022-10-16T16:03:28;25.30;;;21.02;;
43184;SDS011;28803;52.308;19.096;2022-10-16T16:05:56;30.05;;;25.88;;
43184;SDS011;28803;52.308;19.096;2022-10-16T16:08:24;35.72;;;31.85;;
43184;SDS011;28803;52.308;19.096;2022-10-16T16:10:58;36.00;;;30.67;;
43184;SDS011;28803;52.308;19.096;2022-10-16T16:13:51;20.15;;;15.50;;
43184;SDS011;28803;52.308;19.096;2022-10-16T16:16:18;14.00;;;9.02;;
43184;SDS011;28803;52.308;19.096;2022-10-16T16:18:46;17.65;;;12.30;;
43184;SDS011;28803;52.308;19.096;2022-10-16T16:21:16;14.25;;;11.15;;
43184;SDS011;28803;52.308;19.096;2022-10-16T16:23:43;27.27;;;20.05;;
43184;SDS011;28803;52.308;19.096;2022-10-16T16:26:14;46.60;;;25.65;;
43184;SDS011;28803;52.308;19.096;2022-10-16T16:28:53;63.20;;;31.05;;
43184;SDS011;28803;52.308;19.096;2022-10-16T16:31:23;71.78;;;38.00;;
43184;SDS011;28803;52.308;19.096;2022-10-16T16:33:51;52.17;;;29.90;;